Time;durP1;ratioP1;P1;durP2;ratioP2;P2;SDS_P1;SDS_P2;PMS_P1;PMS_P2;Temp;Humidity;BMP_temperature;BMP_pressure;BME280_temperature;BME280_humidity;BME280_pressure;Samples;Min_cycle;Max_cycle;Signal;HPM_P1;HPM_P2
2021/04/17 00:01:28;;;;;;;1.60;1.10;;;24.20;36.90;;;;;;5080463;28;20058;-56
2021/04/17 00:03:54;;;;;;;2.20;1.23;;;24.20;36.90;;;;;;5083514;28;20032;-52
2021/04/17 00:06:20;;;;;;;2.13;1.40;;;24.10;36.80;;;;;;5083651;28;20044;-55
2021/04/17 00:08:45;;;;;;;1.27;1.05;;;24.10;36.80;;;;;;5083446;28;20044;-51
2021/04/17 00:11:11;;;;;;;2.00;1.20;;;24.10;36.80;;;;;;5083622;28;20093;-53
2021/04/17 00:13:37;;;;;;;2.72;1.20;;;24.20;36.90;;;;;;5081853;28;20042;-55
2021/04/17 00:16:03;;;;;;;1.90;1.25;;;24.10;36.90;;;;;;5083429;28;20035;-55
2021/04/17 00:18:28;;;;;;;2.35;1.20;;;24.10;36.90;;;;;;5086132;28;20371;-53
2021/04/17 00:20:54;;;;;;;2.28;1.30;;;24.00;36.80;;;;;;5090366;28;20032;-50
2021/04/17 00:23:20;;;;;;;2.08;1.20;;;24.10;36.90;;;;;;5081582;28;20040;-56
2021/04/17 00:25:45;;;;;;;2.45;1.38;;;24.10;36.90;;;;;;5083911;28;20432;-53
2021/04/17 00:28:11;;;;;;;1.95;1.10;;;24.00;36.80;;;;;;5079736;28;20047;-53
2021/04/17 00:30:37;;;;;;;1.85;1.10;;;24.00;36.80;;;;;;5062608;28;20045;-51
2021/04/17 00:33:02;;;;;;;2.08;1.27;;;24.00;36.90;;;;;;5082439;28;20454;-53
2021/04/17 00:35:28;;;;;;;1.70;1.10;;;24.00;36.80;;;;;;5084442;28;20036;-53
2021/04/17 00:37:54;;;;;;;1.45;1.10;;;24.00;36.80;;;;;;5077411;28;20032;-54
2021/04/17 00:40:19;;;;;;;1.58;1.08;;;23.90;36.80;;;;;;5075287;28;20482;-54
2021/04/17 00:42:45;;;;;;;2.33;1.27;;;24.00;36.80;;;;;;5063213;28;20032;-56
2021/04/17 00:45:11;;;;;;;1.75;1.15;;;23.90;36.80;;;;;;5074872;28;20036;-53
2021/04/17 00:47:37;;;;;;;1.90;1.20;;;23.90;36.80;;;;;;5076747;28;20431;-55
2021/04/17 00:50:03;;;;;;;2.05;1.05;;;23.90;36.80;;;;;;5082551;28;20112;-51
2021/04/17 00:52:29;;;;;;;1.60;1.10;;;23.90;36.80;;;;;;5083348;28;20032;-52
2021/04/17 00:54:55;;;;;;;1.60;1.00;;;23.90;36.80;;;;;;5082765;28;20028;-55
2021/04/17 00:57:21;;;;;;;1.38;1.00;;;23.90;36.80;;;;;;5083262;28;20024;-53
2021/04/17 00:59:46;;;;;;;1.90;1.27;;;23.90;36.80;;;;;;5082991;28;20052;-54
2021/04/17 01:02:14;;;;;;;1.58;1.00;;;23.90;36.80;;;;;;5080642;28;20469;-51
2021/04/17 01:04:43;;;;;;;1.80;1.10;;;23.80;36.80;;;;;;5084097;28;20119;-51
2021/04/17 01:07:19;;;;;;;1.55;1.00;;;23.80;36.80;;;;;;5082561;28;20796;-50
2021/04/17 01:09:50;;;;;;;1.52;1.05;;;23.80;36.80;;;;;;5073678;28;20025;-53
2021/04/17 01:12:19;;;;;;;1.50;1.05;;;23.80;36.80;;;;;;5079391;28;20816;-54
2021/04/17 01:14:48;;;;;;;2.00;1.20;;;23.80;36.80;;;;;;5070808;28;20051;-52
2021/04/17 01:17:14;;;;;;;;;;;23.80;36.80;;;;;;5078919;28;20036;-51
2021/04/17 01:19:40;;;;;;;1.65;1.10;;;23.80;36.80;;;;;;5085784;28;20000;-57
2021/04/17 01:22:10;;;;;;;2.17;1.17;;;23.80;36.80;;;;;;5080890;28;20028;-55
2021/04/17 01:24:38;;;;;;;1.98;1.00;;;23.80;36.80;;;;;;5082454;28;20158;-51
2021/04/17 01:27:06;;;;;;;2.40;1.00;;;23.80;36.80;;;;;;5086553;28;20055;-51
2021/04/17 01:29:33;;;;;;;2.33;1.33;;;23.70;36.80;;;;;;5086625;28;20032;-53
2021/04/17 01:32:01;;;;;;;1.30;1.00;;;23.70;36.80;;;;;;5084603;28;20465;-53
2021/04/17 01:34:27;;;;;;;1.67;1.05;;;23.70;36.80;;;;;;5082165;28;20028;-53
2021/04/17 01:36:54;;;;;;;2.13;1.20;;;23.70;36.80;;;;;;5082601;28;20066;-53
2021/04/17 01:39:24;;;;;;;1.42;1.00;;;23.70;36.80;;;;;;5087115;28;20039;-55
2021/04/17 01:41:55;;;;;;;1.80;1.02;;;23.70;36.80;;;;;;5084041;28;20070;-54
2021/04/17 01:44:22;;;;;;;1.67;1.10;;;23.70;36.80;;;;;;5076015;28;20039;-52
2021/04/17 01:47:01;;;;;;;1.70;1.02;;;23.70;36.80;;;;;;5083789;28;20041;-54
2021/04/17 01:49:28;;;;;;;1.90;1.10;;;23.70;36.80;;;;;;5082187;28;20024;-53
2021/04/17 01:51:56;;;;;;;1.73;1.00;;;23.70;36.80;;;;;;5085409;28;20040;-53
2021/04/17 01:54:26;;;;;;;2.20;1.00;;;23.60;36.80;;;;;;5083820;28;20040;-51
2021/04/17 01:56:56;;;;;;;1.95;1.17;;;23.60;37.30;;;;;;5086472;28;20036;-51
2021/04/17 01:59:23;;;;;;;1.40;1.10;;;23.60;36.80;;;;;;5086102;28;20073;-54
2021/04/17 02:01:48;;;;;;;1.65;1.05;;;23.60;36.80;;;;;;5076112;28;20471;-53
2021/04/17 02:04:15;;;;;;;3.92;1.20;;;23.60;36.80;;;;;;5084960;28;20032;-54
2021/04/17 02:06:41;;;;;;;1.17;0.90;;;23.60;36.80;;;;;;5085993;28;20024;-53
2021/04/17 02:09:06;;;;;;;1.52;1.20;;;23.60;36.90;;;;;;5084864;28;20494;-52
2021/04/17 02:11:32;;;;;;;1.55;1.00;;;23.60;36.80;;;;;;5083373;28;20032;-52
2021/04/17 02:14:01;;;;;;;2.15;1.15;;;23.60;36.80;;;;;;5084163;28;20085;-51
2021/04/17 02:16:35;;;;;;;1.60;0.95;;;23.60;36.80;;;;;;5081299;28;20024;-51
2021/04/17 02:19:04;;;;;;;1.08;0.90;;;23.60;36.80;;;;;;5081685;28;20024;-53
2021/04/17 02:21:43;;;;;;;1.95;1.10;;;23.50;36.80;;;;;;5085634;28;20059;-53
2021/04/17 02:24:09;;;;;;;1.35;1.02;;;23.60;36.80;;;;;;5084561;28;20040;-49
2021/04/17 02:26:36;;;;;;;1.90;1.00;;;23.60;36.80;;;;;;5083589;28;20104;-50
2021/04/17 02:29:03;;;;;;;1.40;1.10;;;23.50;36.80;;;;;;5085656;28;20067;-53
2021/04/17 02:31:29;;;;;;;2.08;1.25;;;23.50;36.80;;;;;;5083434;28;20036;-49
2021/04/17 02:33:56;;;;;;;1.40;1.10;;;23.50;36.80;;;;;;5084020;28;20179;-55
2021/04/17 02:36:22;;;;;;;1.35;0.98;;;23.50;36.80;;;;;;5076300;28;20093;-53
2021/04/17 02:38:48;;;;;;;1.95;0.95;;;23.50;36.80;;;;;;5084389;28;20093;-51
2021/04/17 02:41:14;;;;;;;1.98;1.00;;;23.50;36.80;;;;;;5078895;28;20389;-51
2021/04/17 02:43:42;;;;;;;1.00;0.90;;;23.50;36.80;;;;;;5083663;28;20070;-55
2021/04/17 02:46:09;;;;;;;1.20;0.90;;;23.50;36.80;;;;;;5085181;28;20081;-52
2021/04/17 02:48:35;;;;;;;1.60;1.00;;;23.50;36.90;;;;;;5084271;28;20095;-52
2021/04/17 02:51:01;;;;;;;1.73;1.13;;;23.40;36.80;;;;;;5085379;28;20151;-50
2021/04/17 02:53:27;;;;;;;1.50;1.02;;;23.40;36.80;;;;;;5083019;28;20150;-49
2021/04/17 02:55:53;;;;;;;1.30;1.00;;;23.40;36.80;;;;;;5084274;28;20028;-53
2021/04/17 02:58:19;;;;;;;1.38;1.00;;;23.40;36.80;;;;;;5082299;28;20500;-52
2021/04/17 03:00:44;;;;;;;1.30;1.00;;;23.40;36.80;;;;;;5078569;28;20056;-51
2021/04/17 03:03:10;;;;;;;1.30;1.00;;;23.40;36.80;;;;;;5084220;28;20024;-51
2021/04/17 03:05:36;;;;;;;1.42;0.90;;;23.40;36.80;;;;;;5076478;28;20097;-54
2021/04/17 03:08:02;;;;;;;2.08;1.08;;;23.40;36.80;;;;;;5075860;28;20036;-52
2021/04/17 03:10:27;;;;;;;1.35;1.00;;;23.40;36.80;;;;;;5075397;28;20027;-50
2021/04/17 03:12:53;;;;;;;1.00;0.90;;;23.40;36.80;;;;;;5083451;28;20438;-51
2021/04/17 03:15:19;;;;;;;1.40;1.00;;;23.40;36.80;;;;;;5084299;28;20454;-55
2021/04/17 03:17:44;;;;;;;1.73;1.00;;;23.40;36.80;;;;;;5084150;28;20028;-54
2021/04/17 03:20:10;;;;;;;1.48;1.10;;;23.40;36.80;;;;;;5085098;28;20078;-54
2021/04/17 03:22:37;;;;;;;1.23;0.90;;;23.40;36.80;;;;;;5078520;28;20036;-51
2021/04/17 03:25:05;;;;;;;1.75;1.00;;;23.30;36.80;;;;;;5080250;28;20032;-52
2021/04/17 03:27:31;;;;;;;1.38;1.00;;;23.30;36.80;;;;;;5083321;28;20031;-51
2021/04/17 03:29:56;;;;;;;1.02;0.90;;;23.30;36.80;;;;;;5085629;28;20082;-55
2021/04/17 03:32:23;;;;;;;1.15;0.80;;;23.30;36.80;;;;;;5081022;28;20197;-56
2021/04/17 03:34:48;;;;;;;2.00;1.00;;;23.30;36.90;;;;;;5082352;28;20031;-49
2021/04/17 03:37:14;;;;;;;1.15;1.00;;;23.30;36.80;;;;;;5084318;28;20455;-53
2021/04/17 03:39:39;;;;;;;1.80;1.10;;;23.30;36.90;;;;;;5082555;28;20057;-53
2021/04/17 03:42:05;;;;;;;0.90;0.82;;;23.30;36.80;;;;;;5083008;28;20028;-54
2021/04/17 03:44:31;;;;;;;1.40;1.00;;;23.30;36.80;;;;;;5082238;28;20043;-50
2021/04/17 03:46:56;;;;;;;2.70;1.10;;;23.30;36.80;;;;;;5083618;28;20036;-52
2021/04/17 03:49:22;;;;;;;1.25;0.90;;;23.30;36.80;;;;;;5083260;28;20053;-55
2021/04/17 03:51:48;;;;;;;1.35;0.90;;;23.30;36.80;;;;;;5083466;28;20031;-53
2021/04/17 03:54:14;;;;;;;2.40;0.90;;;23.30;36.90;;;;;;5081694;28;20036;-53
2021/04/17 03:56:39;;;;;;;1.52;0.95;;;23.30;36.80;;;;;;5084335;28;20389;-51
2021/04/17 03:59:05;;;;;;;1.40;1.00;;;23.30;36.80;;;;;;5082392;28;20029;-53
2021/04/17 04:01:31;;;;;;;1.08;0.98;;;23.30;36.90;;;;;;5072759;28;20140;-49
2021/04/17 04:03:57;;;;;;;1.45;1.02;;;23.30;36.90;;;;;;5076072;28;20629;-52
2021/04/17 04:06:27;;;;;;;1.15;0.88;;;23.20;36.80;;;;;;5087089;28;20475;-55
2021/04/17 04:08:52;;;;;;;;;;;23.30;36.90;;;;;;5086475;28;20146;-49
2021/04/17 04:11:18;;;;;;;1.45;0.95;;;23.20;36.80;;;;;;5086627;28;20006;-51
2021/04/17 04:13:43;;;;;;;1.20;0.90;;;23.30;36.90;;;;;;5082761;28;20032;-53
2021/04/17 04:16:09;;;;;;;1.90;1.00;;;23.20;37.40;;;;;;5082530;28;20073;-53
2021/04/17 04:18:35;;;;;;;1.40;1.00;;;23.20;36.80;;;;;;5083068;28;20032;-53
2021/04/17 04:21:00;;;;;;;1.65;1.00;;;23.20;36.80;;;;;;5093173;28;20040;-53
2021/04/17 04:23:26;;;;;;;1.15;0.95;;;23.20;36.80;;;;;;5079661;28;20238;-53
2021/04/17 04:25:52;;;;;;;1.30;0.90;;;23.20;36.80;;;;;;5082690;28;20024;-50
2021/04/17 04:28:17;;;;;;;1.42;0.90;;;23.20;36.80;;;;;;5079576;28;20024;-53
2021/04/17 04:30:43;;;;;;;1.15;0.90;;;23.20;36.80;;;;;;5081312;28;20134;-50
2021/04/17 04:33:09;;;;;;;1.33;0.90;;;23.20;36.80;;;;;;5073390;28;20630;-51
2021/04/17 04:35:35;;;;;;;1.45;1.02;;;23.20;36.90;;;;;;5074378;28;20161;-48
2021/04/17 04:38:01;;;;;;;1.17;1.00;;;23.10;36.80;;;;;;5070825;28;20114;-51
2021/04/17 04:40:26;;;;;;;1.35;0.98;;;23.10;36.80;;;;;;5080502;28;20447;-55
2021/04/17 04:42:52;;;;;;;1.65;1.10;;;23.20;36.80;;;;;;5079321;28;20032;-53
2021/04/17 04:45:18;;;;;;;1.05;0.90;;;23.10;36.80;;;;;;5075848;28;20036;-49
2021/04/17 04:47:43;;;;;;;1.23;0.90;;;23.20;36.80;;;;;;5076584;28;20463;-47
2021/04/17 04:50:10;;;;;;;1.20;0.90;;;23.10;36.80;;;;;;5080318;28;20128;-49
2021/04/17 04:52:36;;;;;;;1.20;0.90;;;23.10;36.80;;;;;;5080127;28;20043;-47
2021/04/17 04:55:03;;;;;;;1.20;0.90;;;23.10;36.80;;;;;;5078017;28;20032;-50
2021/04/17 04:57:28;;;;;;;0.98;0.80;;;23.10;36.80;;;;;;5078197;28;20043;-52
2021/04/17 04:59:54;;;;;;;1.10;0.90;;;23.10;36.80;;;;;;5080636;28;20032;-48
2021/04/17 05:02:19;;;;;;;1.58;0.95;;;23.10;36.80;;;;;;5085827;28;20462;-52
2021/04/17 05:04:46;;;;;;;1.95;1.10;;;23.10;36.80;;;;;;5092146;28;20040;-50
2021/04/17 05:07:11;;;;;;;1.50;0.90;;;23.10;36.80;;;;;;5082050;28;20035;-50
2021/04/17 05:09:37;;;;;;;1.27;0.90;;;23.10;36.80;;;;;;5080605;28;20356;-48
2021/04/17 05:12:03;;;;;;;0.80;0.80;;;23.10;36.80;;;;;;5079308;28;20035;-52
2021/04/17 05:14:29;;;;;;;1.45;1.02;;;23.10;36.80;;;;;;5087917;28;20126;-51
2021/04/17 05:16:54;;;;;;;1.33;1.00;;;23.10;36.90;;;;;;5081293;28;20164;-50
2021/04/17 05:19:20;;;;;;;1.38;1.17;;;23.10;36.90;;;;;;5077540;28;20035;-51
2021/04/17 05:21:46;;;;;;;1.45;1.02;;;23.10;36.90;;;;;;5084120;28;20493;-49
2021/04/17 05:24:11;;;;;;;2.25;1.00;;;23.10;36.90;;;;;;5080278;28;20111;-51
2021/04/17 05:26:37;;;;;;;1.15;0.80;;;23.10;36.90;;;;;;5085755;28;20548;-50
2021/04/17 05:29:03;;;;;;;1.38;1.00;;;23.10;36.80;;;;;;5082576;28;20543;-49
2021/04/17 05:31:29;;;;;;;1.40;0.93;;;23.00;36.80;;;;;;5074404;28;20104;-52
2021/04/17 05:33:55;;;;;;;1.25;0.88;;;23.10;37.40;;;;;;5079560;28;20433;-53
2021/04/17 05:36:21;;;;;;;1.48;0.88;;;23.00;36.80;;;;;;5082772;28;20419;-54
2021/04/17 05:38:47;;;;;;;1.52;0.90;;;23.10;36.80;;;;;;5077763;28;20576;-51
2021/04/17 05:41:12;;;;;;;1.33;1.00;;;23.10;36.80;;;;;;5081733;28;20032;-50
2021/04/17 05:43:38;;;;;;;1.42;0.98;;;23.10;36.80;;;;;;5077896;28;20587;-47
2021/04/17 05:46:04;;;;;;;1.52;1.00;;;23.10;36.90;;;;;;5079680;28;20036;-49
2021/04/17 05:48:29;;;;;;;2.00;1.20;;;23.00;36.80;;;;;;5080819;28;20032;-52
2021/04/17 05:50:57;;;;;;;1.67;1.10;;;23.00;36.80;;;;;;5081008;28;20240;-49
2021/04/17 05:53:23;;;;;;;1.38;1.05;;;23.00;36.80;;;;;;5081473;28;20055;-50
2021/04/17 05:55:48;;;;;;;1.52;1.08;;;23.00;36.80;;;;;;5075831;28;20717;-51
2021/04/17 05:58:14;;;;;;;0.80;0.80;;;23.00;36.80;;;;;;5075003;28;20224;-51
2021/04/17 06:00:39;;;;;;;1.80;1.10;;;23.00;36.80;;;;;;5077969;28;20044;-57
2021/04/17 06:03:06;;;;;;;1.45;1.00;;;23.00;36.70;;;;;;5081693;28;20384;-53
2021/04/17 06:05:32;;;;;;;1.80;1.00;;;23.00;36.80;;;;;;5078643;28;20321;-53
2021/04/17 06:07:57;;;;;;;1.50;1.17;;;23.00;36.80;;;;;;5077599;28;20036;-52
2021/04/17 06:10:23;;;;;;;1.77;0.90;;;23.00;36.80;;;;;;5071526;28;20040;-51
2021/04/17 06:12:49;;;;;;;1.40;0.90;;;23.00;36.80;;;;;;5078077;28;20032;-48
2021/04/17 06:15:15;;;;;;;1.55;1.02;;;23.00;36.80;;;;;;5070898;28;20024;-50
2021/04/17 06:17:41;;;;;;;1.63;1.05;;;23.00;36.80;;;;;;5080503;28;20435;-50
2021/04/17 06:20:08;;;;;;;1.40;1.00;;;23.00;36.80;;;;;;5081986;28;20039;-51
2021/04/17 06:22:33;;;;;;;1.70;1.00;;;23.00;36.80;;;;;;5079145;28;20047;-54
2021/04/17 06:24:59;;;;;;;2.05;1.00;;;23.00;36.90;;;;;;5080878;28;20431;-53
2021/04/17 06:27:24;;;;;;;1.77;1.10;;;23.00;36.90;;;;;;5080130;28;20126;-50
2021/04/17 06:29:50;;;;;;;1.77;1.00;;;23.00;36.90;;;;;;5082047;28;20059;-52
2021/04/17 06:32:16;;;;;;;1.40;1.05;;;23.00;36.90;;;;;;5079663;28;20462;-55
2021/04/17 06:34:41;;;;;;;2.78;1.00;;;23.00;36.90;;;;;;5080040;28;20028;-52
2021/04/17 06:37:07;;;;;;;1.52;1.00;;;23.00;36.90;;;;;;5067503;28;20431;-49
2021/04/17 06:39:33;;;;;;;1.45;1.00;;;23.00;36.90;;;;;;5082816;28;20375;-54
2021/04/17 06:42:02;;;;;;;1.33;1.00;;;23.00;37.00;;;;;;5087700;28;20459;-56
2021/04/17 06:44:29;;;;;;;1.45;1.00;;;23.00;37.00;;;;;;5060520;28;20750;-53
2021/04/17 06:46:55;;;;;;;2.00;1.00;;;23.00;37.00;;;;;;5082938;28;20120;-53
2021/04/17 06:49:21;;;;;;;1.35;1.00;;;23.00;37.00;;;;;;5070585;28;20056;-51
2021/04/17 06:51:49;;;;;;;1.67;1.10;;;23.00;37.00;;;;;;5082255;28;20111;-55
2021/04/17 06:54:21;;;;;;;1.65;1.00;;;23.00;37.00;;;;;;5067780;28;20131;-51
2021/04/17 06:56:50;;;;;;;1.30;0.98;;;22.90;37.00;;;;;;5082673;28;20115;-49
2021/04/17 06:59:16;;;;;;;2.40;1.10;;;23.00;37.00;;;;;;5083565;28;20443;-54
2021/04/17 07:01:42;;;;;;;1.52;1.00;;;23.00;37.10;;;;;;5078426;28;20078;-54
2021/04/17 07:04:08;;;;;;;1.48;1.20;;;22.90;37.00;;;;;;5081103;28;20427;-53
2021/04/17 07:06:35;;;;;;;1.45;1.17;;;23.00;37.10;;;;;;5079549;28;20024;-54
2021/04/17 07:09:03;;;;;;;1.83;1.10;;;22.90;37.00;;;;;;5082015;28;20291;-54
2021/04/17 07:11:28;;;;;;;1.65;0.95;;;22.90;37.00;;;;;;5083085;28;20164;-51
2021/04/17 07:14:09;;;;;;;1.20;0.90;;;22.90;37.60;;;;;;5080776;28;20054;-51
2021/04/17 07:16:54;;;;;;;2.10;1.00;;;22.90;37.10;;;;;;5075192;28;20097;-51
2021/04/17 07:19:21;;;;;;;1.52;1.02;;;22.90;37.10;;;;;;5082612;28;20436;-53
2021/04/17 07:21:46;;;;;;;1.80;1.05;;;22.90;37.10;;;;;;5081460;28;20036;-54
2021/04/17 07:24:23;;;;;;;1.70;1.10;;;22.90;37.20;;;;;;5080091;28;20050;-52
2021/04/17 07:26:48;;;;;;;1.60;1.00;;;22.90;37.10;;;;;;5081293;28;20055;-53
2021/04/17 07:29:14;;;;;;;1.77;1.10;;;22.90;37.20;;;;;;5080618;28;20435;-55
2021/04/17 07:31:56;;;;;;;1.58;1.10;;;22.90;37.20;;;;;;5081904;28;20035;-53
2021/04/17 07:34:24;;;;;;;1.33;1.00;;;22.90;37.20;;;;;;5080998;28;20437;-51
2021/04/17 07:36:59;;;;;;;1.45;1.13;;;22.90;37.70;;;;;;5075640;28;20331;-53
2021/04/17 07:39:33;;;;;;;2.42;1.10;;;22.90;37.20;;;;;;5075331;28;20197;-53
2021/04/17 07:42:10;;;;;;;1.52;1.10;;;22.90;37.20;;;;;;5084086;28;20035;-51
2021/04/17 07:44:39;;;;;;;1.73;1.10;;;22.90;37.20;;;;;;5080157;28;20036;-53
2021/04/17 07:47:06;;;;;;;1.50;1.25;;;22.90;37.20;;;;;;5082066;28;20028;-50
2021/04/17 07:49:32;;;;;;;3.70;1.00;;;22.90;37.20;;;;;;5081281;28;20036;-52
2021/04/17 07:52:02;;;;;;;1.73;1.10;;;22.90;37.20;;;;;;5081579;28;20096;-51
2021/04/17 07:54:30;;;;;;;1.42;1.00;;;22.90;37.20;;;;;;5080078;28;20036;-53
2021/04/17 07:57:02;;;;;;;1.58;1.10;;;22.90;37.20;;;;;;5080400;28;20520;-48
2021/04/17 07:59:27;;;;;;;1.70;1.10;;;22.90;37.20;;;;;;5079953;28;20063;-49
2021/04/17 08:01:53;;;;;;;2.00;1.10;;;22.90;37.20;;;;;;5077281;28;20071;-51
2021/04/17 08:04:27;;;;;;;2.35;1.10;;;22.90;37.30;;;;;;5079105;28;20028;-50
2021/04/17 08:06:55;;;;;;;1.95;1.10;;;22.90;37.20;;;;;;5080337;28;20035;-50
2021/04/17 08:09:22;;;;;;;2.63;1.17;;;22.90;37.20;;;;;;5078481;28;20576;-52
2021/04/17 08:11:56;;;;;;;1.88;1.10;;;22.90;37.20;;;;;;5072366;28;20670;-52
2021/04/17 08:14:24;;;;;;;1.67;1.27;;;22.90;37.30;;;;;;5070392;28;20178;-51
2021/04/17 08:16:51;;;;;;;2.30;1.20;;;22.90;37.30;;;;;;5077875;28;20123;-50
2021/04/17 08:19:17;;;;;;;2.47;1.20;;;22.90;37.30;;;;;;5079397;28;20509;-49
2021/04/17 08:21:43;;;;;;;2.20;1.30;;;22.90;37.30;;;;;;5080301;28;20059;-50
2021/04/17 08:24:10;;;;;;;2.78;1.20;;;22.90;37.30;;;;;;5080024;28;20031;-56
2021/04/17 08:26:37;;;;;;;1.45;1.00;;;23.00;37.40;;;;;;5077721;28;20061;-48
2021/04/17 08:29:03;;;;;;;1.50;1.20;;;23.00;37.40;;;;;;5076215;28;20459;-49
2021/04/17 08:31:31;;;;;;;2.05;1.17;;;23.00;37.40;;;;;;5076465;28;20044;-55
2021/04/17 08:34:17;;;;;;;3.20;1.10;;;23.00;37.40;;;;;;5065308;28;20399;-51
2021/04/17 08:37:01;;;;;;;2.03;1.17;;;23.00;37.40;;;;;;5070916;28;20032;-49
2021/04/17 08:39:36;;;;;;;1.80;1.10;;;23.00;37.40;;;;;;5075319;28;20428;-52
2021/04/17 08:42:04;;;;;;;2.70;1.50;;;23.00;37.40;;;;;;5081972;28;20046;-53
2021/04/17 08:44:37;;;;;;;1.52;1.10;;;23.00;37.40;;;;;;5081229;28;20552;-50
2021/04/17 08:47:05;;;;;;;1.95;1.20;;;23.00;37.40;;;;;;5082426;28;20028;-50
2021/04/17 08:49:37;;;;;;;2.45;1.27;;;23.00;37.50;;;;;;5082657;28;20075;-55
2021/04/17 08:52:09;;;;;;;1.92;1.20;;;23.00;37.50;;;;;;5082947;28;20418;-49
2021/04/17 08:54:35;;;;;;;2.30;1.40;;;23.00;37.50;;;;;;5080758;28;20115;-50
2021/04/17 08:57:13;;;;;;;2.53;1.30;;;23.00;37.50;;;;;;5082609;28;20028;-51
2021/04/17 08:59:40;;;;;;;2.22;1.23;;;23.00;37.50;;;;;;5079636;28;20039;-50
2021/04/17 09:02:14;;;;;;;2.42;1.30;;;23.00;37.50;;;;;;5052365;28;20570;-52
2021/04/17 09:04:59;;;;;;;1.70;1.30;;;23.00;37.50;;;;;;5078499;28;20040;-50
2021/04/17 09:07:26;;;;;;;2.00;1.23;;;23.00;37.50;;;;;;5080372;28;20352;-51
2021/04/17 09:09:53;;;;;;;2.33;1.30;;;23.00;37.50;;;;;;5080977;28;20059;-48
2021/04/17 09:12:23;;;;;;;1.90;1.25;;;23.00;37.50;;;;;;5076885;28;20333;-55
2021/04/17 09:14:48;;;;;;;1.92;1.33;;;23.00;37.50;;;;;;5078682;28;20067;-47
2021/04/17 09:17:33;;;;;;;2.33;1.40;;;23.00;37.50;;;;;;5081226;28;20107;-47
2021/04/17 09:20:00;;;;;;;2.13;1.33;;;23.10;37.50;;;;;;5085598;28;20502;-54
2021/04/17 09:24:51;;;;;;;2.38;1.23;;;23.10;37.50;;;;;;5080010;28;20474;-52
2021/04/17 09:27:37;;;;;;;2.38;1.30;;;23.10;37.50;;;;;;5079355;28;20450;-53
2021/04/17 09:30:13;;;;;;;1.55;1.25;;;23.10;37.50;;;;;;5081774;28;20124;-51
2021/04/17 09:32:48;;;;;;;2.55;1.30;;;23.00;37.50;;;;;;5062026;28;20423;-49
2021/04/17 09:35:16;;;;;;;3.05;1.30;;;23.10;37.50;;;;;;5076113;28;20550;-53
2021/04/17 09:38:06;;;;;;;2.38;1.30;;;23.10;37.50;;;;;;5075719;28;20149;-51
2021/04/17 09:40:38;;;;;;;2.72;1.40;;;23.10;37.50;;;;;;5079644;28;20459;-53
2021/04/17 09:43:05;;;;;;;1.98;1.23;;;23.10;37.50;;;;;;5086278;28;20024;-49
2021/04/17 09:45:40;;;;;;;2.25;1.40;;;23.10;37.50;;;;;;5086159;28;20071;-52
2021/04/17 09:48:08;;;;;;;2.22;1.35;;;23.10;37.50;;;;;;5080251;28;20043;-51
2021/04/17 09:50:36;;;;;;;2.35;1.20;;;23.10;37.50;;;;;;5079802;28;20110;-50
2021/04/17 09:53:17;;;;;;;1.63;1.20;;;23.10;37.50;;;;;;5072003;28;20484;-54
2021/04/17 09:55:56;;;;;;;3.55;1.35;;;23.10;37.50;;;;;;5073415;28;20028;-52
2021/04/17 09:58:34;;;;;;;2.00;1.42;;;23.10;37.50;;;;;;5079643;28;20028;-52
2021/04/17 10:01:10;;;;;;;2.63;1.23;;;23.10;37.60;;;;;;5078970;28;20036;-57
2021/04/17 10:03:38;;;;;;;3.95;1.40;;;23.10;37.60;;;;;;5079109;28;20432;-54
2021/04/17 10:06:21;;;;;;;2.00;1.40;;;23.20;37.60;;;;;;5081325;28;20036;-56
2021/04/17 10:08:47;;;;;;;2.45;1.20;;;23.10;37.60;;;;;;5081682;28;20504;-54
2021/04/17 10:11:20;;;;;;;3.20;1.30;;;23.10;37.70;;;;;;5077367;28;20167;-57
2021/04/17 10:13:46;;;;;;;1.83;1.40;;;23.10;37.60;;;;;;5079646;28;20493;-54
2021/04/17 10:16:13;;;;;;;3.10;1.40;;;23.10;37.60;;;;;;5084423;28;20016;-54
2021/04/17 10:18:43;;;;;;;2.10;1.20;;;23.10;37.50;;;;;;5079918;28;20089;-53
2021/04/17 10:21:10;;;;;;;2.30;1.40;;;23.10;37.40;;;;;;5081921;28;20020;-55
2021/04/17 10:23:36;;;;;;;2.28;1.30;;;23.10;37.30;;;;;;5071902;28;20035;-55
2021/04/17 10:26:06;;;;;;;2.78;1.30;;;23.20;37.30;;;;;;5072830;28;20032;-55
2021/04/17 10:28:33;;;;;;;3.80;1.20;;;23.10;37.20;;;;;;5081855;28;20483;-56
2021/04/17 10:31:07;;;;;;;3.30;1.40;;;23.10;37.10;;;;;;5076631;28;20059;-53
2021/04/17 10:33:33;;;;;;;3.13;1.52;;;23.10;37.10;;;;;;5079277;28;20386;-54
2021/04/17 10:36:02;;;;;;;2.47;1.30;;;23.10;37.00;;;;;;5080577;28;20028;-56
2021/04/17 10:38:33;;;;;;;2.10;1.23;;;23.20;37.20;;;;;;5082526;28;20135;-55
2021/04/17 10:41:01;;;;;;;2.92;1.60;;;23.20;37.10;;;;;;5070215;28;20072;-59
2021/04/17 10:43:28;;;;;;;1.95;1.20;;;23.20;37.00;;;;;;5074854;28;20024;-57
2021/04/17 10:45:57;;;;;;;2.13;1.38;;;23.20;37.00;;;;;;5077440;28;21136;-57
2021/04/17 10:48:25;;;;;;;2.40;1.40;;;23.20;37.00;;;;;;5071722;28;20165;-56
2021/04/17 10:51:02;;;;;;;2.90;1.30;;;23.20;36.90;;;;;;5078170;28;20424;-57
2021/04/17 10:53:34;;;;;;;1.75;1.20;;;23.20;36.90;;;;;;5077175;28;20606;-50
2021/04/17 10:56:08;;;;;;;3.75;1.40;;;23.20;36.90;;;;;;5076479;28;20107;-55
2021/04/17 10:58:35;;;;;;;2.35;1.33;;;23.20;36.90;;;;;;5080573;28;20505;-55
2021/04/17 11:01:09;;;;;;;2.00;1.10;;;23.20;36.90;;;;;;5079323;28;20142;-53
2021/04/17 11:03:42;;;;;;;2.83;1.05;;;23.20;37.00;;;;;;5079432;28;20035;-52
2021/04/17 11:06:34;;;;;;;1.80;1.13;;;23.20;37.00;;;;;;5080441;28;20120;-57
2021/04/17 11:09:26;;;;;;;2.10;1.10;;;23.20;37.00;;;;;;5063761;28;20056;-55
2021/04/17 11:11:56;;;;;;;2.92;1.20;;;23.20;37.00;;;;;;5069960;28;20107;-56
2021/04/17 11:14:24;;;;;;;2.80;1.40;;;23.20;37.00;;;;;;5077093;28;20516;-57
2021/04/17 11:16:51;;;;;;;2.42;1.20;;;23.20;37.10;;;;;;5081965;28;20028;-52
2021/04/17 11:19:29;;;;;;;2.50;1.30;;;23.20;37.10;;;;;;5078961;28;20039;-53
2021/04/17 11:22:33;;;;;;;5.18;1.27;;;23.20;37.50;;;;;;5075334;28;20043;-59
2021/04/17 11:24:59;;;;;;;2.47;1.20;;;23.20;37.10;;;;;;5070350;28;20105;-51
2021/04/17 11:27:28;;;;;;;2.08;1.20;;;23.20;37.10;;;;;;5081553;28;20043;-54
2021/04/17 11:29:54;;;;;;;1.67;1.20;;;23.20;37.10;;;;;;5082042;28;20276;-54
2021/04/17 11:32:20;;;;;;;2.10;1.20;;;23.20;37.00;;;;;;5081258;28;20204;-53
2021/04/17 11:34:47;;;;;;;4.15;1.25;;;23.10;36.80;;;;;;5081889;28;20320;-54
2021/04/17 11:37:13;;;;;;;2.15;1.08;;;23.20;36.80;;;;;;5076358;28;20035;-53
2021/04/17 11:39:39;;;;;;;3.88;1.20;;;23.10;36.60;;;;;;5080960;28;20031;-54
2021/04/17 11:42:05;;;;;;;3.55;1.00;;;23.20;36.80;;;;;;5080521;28;20024;-51
2021/04/17 11:44:31;;;;;;;2.03;1.13;;;23.10;36.70;;;;;;5076883;28;20049;-52
2021/04/17 11:46:58;;;;;;;2.20;1.10;;;23.10;36.70;;;;;;5082136;28;20089;-56
2021/04/17 11:49:23;;;;;;;1.85;1.05;;;23.10;36.60;;;;;;5081617;28;20419;-51
2021/04/17 11:51:49;;;;;;;2.58;1.10;;;23.20;36.70;;;;;;5070793;28;20393;-55
2021/04/17 11:54:14;;;;;;;3.25;1.10;;;23.20;36.70;;;;;;5076671;28;20455;-55
2021/04/17 11:56:40;;;;;;;2.92;1.35;;;23.20;37.20;;;;;;5075586;28;20035;-53
2021/04/17 11:59:06;;;;;;;2.17;1.10;;;23.10;36.60;;;;;;5078170;28;20034;-53
2021/04/17 12:01:31;;;;;;;1.83;1.20;;;23.10;36.70;;;;;;5075917;28;20052;-55
2021/04/17 12:03:57;;;;;;;1.80;1.10;;;23.10;36.70;;;;;;5080388;28;20438;-58
2021/04/17 12:06:29;;;;;;;1.77;1.13;;;23.10;36.70;;;;;;5081138;28;20081;-51
2021/04/17 12:08:58;;;;;;;1.98;1.02;;;23.10;36.70;;;;;;5077518;28;20039;-56
2021/04/17 12:11:24;;;;;;;1.40;1.00;;;23.20;36.70;;;;;;5077432;28;20032;-52
2021/04/17 12:13:49;;;;;;;2.30;1.08;;;23.10;36.70;;;;;;5077173;28;20061;-52
2021/04/17 12:16:15;;;;;;;1.92;1.00;;;23.10;36.70;;;;;;5061223;28;20047;-54
2021/04/17 12:18:41;;;;;;;1.60;0.90;;;23.10;36.70;;;;;;5079688;28;20386;-51
2021/04/17 12:21:07;;;;;;;1.83;1.00;;;23.20;36.70;;;;;;5069779;28;20043;-53
2021/04/17 12:23:33;;;;;;;2.22;1.20;;;23.20;36.70;;;;;;5073836;28;20124;-52
2021/04/17 12:25:58;;;;;;;2.58;1.10;;;23.20;36.70;;;;;;5075278;28;20024;-50
2021/04/17 12:28:25;;;;;;;1.25;0.95;;;23.20;36.70;;;;;;5078625;28;20447;-49
2021/04/17 12:30:55;;;;;;;2.75;1.10;;;23.20;36.70;;;;;;5077215;28;20068;-51
2021/04/17 12:33:21;;;;;;;1.50;1.08;;;23.20;36.70;;;;;;5078944;28;20241;-51
2021/04/17 12:35:48;;;;;;;2.65;1.05;;;23.20;36.80;;;;;;5079111;28;20559;-56
2021/04/17 12:38:14;;;;;;;2.15;1.00;;;23.20;36.70;;;;;;5078011;28;20429;-53
2021/04/17 12:40:40;;;;;;;1.77;1.00;;;23.20;36.70;;;;;;5064319;28;20036;-57
2021/04/17 12:43:07;;;;;;;2.75;1.15;;;23.20;36.80;;;;;;5072436;28;20055;-51
2021/04/17 12:45:34;;;;;;;1.42;1.00;;;23.20;36.70;;;;;;5079525;28;20047;-53
2021/04/17 12:48:00;;;;;;;1.50;1.00;;;23.20;36.80;;;;;;5071015;28;20038;-56
2021/04/17 12:50:26;;;;;;;1.63;1.10;;;23.20;36.70;;;;;;5056787;28;20028;-54
2021/04/17 12:52:52;;;;;;;2.00;1.10;;;23.20;36.80;;;;;;5079295;28;20170;-57
2021/04/17 12:55:18;;;;;;;2.30;1.00;;;23.20;36.70;;;;;;5075654;28;20410;-54